sensor_id;sensor_type;location;lat;lon;timestamp;P1;durP1;ratioP1;P2;durP2;ratioP2
59659;SDS011;45534;52.690;6.268;2022-07-17T00:01:03;5.45;;;2.05;;
59659;SDS011;45534;52.690;6.268;2022-07-17T00:03:29;4.45;;;1.95;;
59659;SDS011;45534;52.690;6.268;2022-07-17T00:05:55;1.85;;;1.75;;
59659;SDS011;45534;52.690;6.268;2022-07-17T00:08:21;4.75;;;1.83;;
59659;SDS011;45534;52.690;6.268;2022-07-17T00:10:46;9.43;;;3.58;;
59659;SDS011;45534;52.690;6.268;2022-07-17T00:13:12;4.78;;;3.53;;
59659;SDS011;45534;52.690;6.268;2022-07-17T00:15:38;3.60;;;2.40;;
59659;SDS011;45534;52.690;6.268;2022-07-17T00:18:03;5.88;;;3.22;;
59659;SDS011;45534;52.690;6.268;2022-07-17T00:20:31;2.75;;;2.42;;
59659;SDS011;45534;52.690;6.268;2022-07-17T00:22:58;4.15;;;3.08;;
59659;SDS011;45534;52.690;6.268;2022-07-17T00:25:24;4.45;;;1.75;;
59659;SDS011;45534;52.690;6.268;2022-07-17T00:27:50;2.38;;;1.88;;
59659;SDS011;45534;52.690;6.268;2022-07-17T00:30:16;2.22;;;2.00;;
59659;SDS011;45534;52.690;6.268;2022-07-17T00:32:43;1.88;;;1.73;;
59659;SDS011;45534;52.690;6.268;2022-07-17T00:35:09;3.53;;;2.10;;
59659;SDS011;45534;52.690;6.268;2022-07-17T00:37:42;2.15;;;1.73;;
59659;SDS011;45534;52.690;6.268;2022-07-17T00:40:10;3.70;;;2.10;;
59659;SDS011;45534;52.690;6.268;2022-07-17T00:42:38;3.38;;;2.90;;
59659;SDS011;45534;52.690;6.268;2022-07-17T00:45:07;6.57;;;4.47;;
59659;SDS011;45534;52.690;6.268;2022-07-17T00:47:34;2.40;;;2.05;;
59659;SDS011;45534;52.690;6.268;2022-07-17T00:50:22;2.85;;;2.08;;
59659;SDS011;45534;52.690;6.268;2022-07-17T00:52:48;3.92;;;2.42;;
59659;SDS011;45534;52.690;6.268;2022-07-17T00:55:14;4.53;;;2.55;;
59659;SDS011;45534;52.690;6.268;2022-07-17T00:57:42;4.85;;;2.25;;
59659;SDS011;45534;52.690;6.268;2022-07-17T01:00:12;3.97;;;2.00;;
59659;SDS011;45534;52.690;6.268;2022-07-17T01:02:38;10.45;;;2.72;;
59659;SDS011;45534;52.690;6.268;2022-07-17T01:05:04;2.20;;;1.98;;
59659;SDS011;45534;52.690;6.268;2022-07-17T01:07:30;5.03;;;2.75;;
59659;SDS011;45534;52.690;6.268;2022-07-17T01:09:57;3.20;;;2.22;;
59659;SDS011;45534;52.690;6.268;2022-07-17T01:12:23;4.03;;;2.42;;
59659;SDS011;45534;52.690;6.268;2022-07-17T01:14:50;3.38;;;2.92;;
59659;SDS011;45534;52.690;6.268;2022-07-17T01:17:17;2.80;;;2.60;;
59659;SDS011;45534;52.690;6.268;2022-07-17T01:19:43;3.28;;;2.10;;
59659;SDS011;45534;52.690;6.268;2022-07-17T01:22:08;5.13;;;3.30;;
59659;SDS011;45534;52.690;6.268;2022-07-17T01:24:38;2.65;;;1.92;;
59659;SDS011;45534;52.690;6.268;2022-07-17T01:27:04;5.15;;;2.30;;
59659;SDS011;45534;52.690;6.268;2022-07-17T01:29:30;7.13;;;2.80;;
59659;SDS011;45534;52.690;6.268;2022-07-17T01:31:56;16.30;;;3.38;;
59659;SDS011;45534;52.690;6.268;2022-07-17T01:34:22;3.38;;;2.30;;
59659;SDS011;45534;52.690;6.268;2022-07-17T01:36:48;2.95;;;2.17;;
59659;SDS011;45534;52.690;6.268;2022-07-17T01:39:13;2.72;;;2.05;;
59659;SDS011;45534;52.690;6.268;2022-07-17T01:41:39;2.33;;;2.13;;
59659;SDS011;45534;52.690;6.268;2022-07-17T01:44:05;4.05;;;2.42;;
59659;SDS011;45534;52.690;6.268;2022-07-17T01:46:32;6.15;;;2.33;;
59659;SDS011;45534;52.690;6.268;2022-07-17T01:48:58;1.30;;;1.27;;
59659;SDS011;45534;52.690;6.268;2022-07-17T01:51:26;5.15;;;3.15;;
59659;SDS011;45534;52.690;6.268;2022-07-17T01:53:52;2.38;;;2.17;;
59659;SDS011;45534;52.690;6.268;2022-07-17T01:56:18;4.75;;;2.53;;
59659;SDS011;45534;52.690;6.268;2022-07-17T01:58:43;5.28;;;2.35;;
59659;SDS011;45534;52.690;6.268;2022-07-17T02:01:09;5.47;;;2.25;;
59659;SDS011;45534;52.690;6.268;2022-07-17T02:03:35;2.35;;;2.15;;
59659;SDS011;45534;52.690;6.268;2022-07-17T02:06:01;1.80;;;1.70;;
59659;SDS011;45534;52.690;6.268;2022-07-17T02:08:26;3.58;;;3.03;;
59659;SDS011;45534;52.690;6.268;2022-07-17T02:10:52;1.67;;;1.40;;
59659;SDS011;45534;52.690;6.268;2022-07-17T02:13:17;3.35;;;3.05;;
59659;SDS011;45534;52.690;6.268;2022-07-17T02:15:43;3.38;;;2.15;;
59659;SDS011;45534;52.690;6.268;2022-07-17T02:18:09;2.00;;;1.50;;
59659;SDS011;45534;52.690;6.268;2022-07-17T02:20:34;4.38;;;1.90;;
59659;SDS011;45534;52.690;6.268;2022-07-17T02:23:00;4.22;;;2.15;;
59659;SDS011;45534;52.690;6.268;2022-07-17T02:25:26;1.98;;;1.88;;
59659;SDS011;45534;52.690;6.268;2022-07-17T02:27:51;1.30;;;1.30;;
59659;SDS011;45534;52.690;6.268;2022-07-17T02:30:17;1.90;;;1.80;;
59659;SDS011;45534;52.690;6.268;2022-07-17T02:32:44;2.30;;;1.75;;
59659;SDS011;45534;52.690;6.268;2022-07-17T02:35:10;4.05;;;2.45;;
59659;SDS011;45534;52.690;6.268;2022-07-17T02:37:37;4.22;;;2.20;;
59659;SDS011;45534;52.690;6.268;2022-07-17T02:40:04;3.95;;;2.67;;
59659;SDS011;45534;52.690;6.268;2022-07-17T02:42:30;2.10;;;1.90;;
59659;SDS011;45534;52.690;6.268;2022-07-17T02:44:57;3.47;;;2.40;;
59659;SDS011;45534;52.690;6.268;2022-07-17T02:47:27;1.80;;;1.70;;
59659;SDS011;45534;52.690;6.268;2022-07-17T02:49:57;3.20;;;2.50;;
59659;SDS011;45534;52.690;6.268;2022-07-17T02:52:24;7.68;;;2.35;;
59659;SDS011;45534;52.690;6.268;2022-07-17T02:54:50;2.35;;;1.98;;
59659;SDS011;45534;52.690;6.268;2022-07-17T02:57:16;2.65;;;2.45;;
59659;SDS011;45534;52.690;6.268;2022-07-17T02:59:43;3.05;;;1.90;;
59659;SDS011;45534;52.690;6.268;2022-07-17T03:02:09;3.17;;;2.40;;
59659;SDS011;45534;52.690;6.268;2022-07-17T03:04:35;4.55;;;3.05;;
59659;SDS011;45534;52.690;6.268;2022-07-17T03:07:01;2.72;;;2.47;;
59659;SDS011;45534;52.690;6.268;2022-07-17T03:09:26;6.32;;;2.22;;
59659;SDS011;45534;52.690;6.268;2022-07-17T03:11:52;2.38;;;2.17;;
59659;SDS011;45534;52.690;6.268;2022-07-17T03:14:17;2.70;;;2.13;;
59659;SDS011;45534;52.690;6.268;2022-07-17T03:16:43;3.78;;;2.95;;
59659;SDS011;45534;52.690;6.268;2022-07-17T03:19:09;2.70;;;2.13;;
59659;SDS011;45534;52.690;6.268;2022-07-17T03:21:34;8.73;;;2.20;;
59659;SDS011;45534;52.690;6.268;2022-07-17T03:24:00;2.70;;;2.50;;
59659;SDS011;45534;52.690;6.268;2022-07-17T03:26:26;3.75;;;2.35;;
59659;SDS011;45534;52.690;6.268;2022-07-17T03:28:51;1.63;;;1.52;;
59659;SDS011;45534;52.690;6.268;2022-07-17T03:31:17;2.20;;;1.98;;
59659;SDS011;45534;52.690;6.268;2022-07-17T03:33:43;2.67;;;2.42;;
59659;SDS011;45534;52.690;6.268;2022-07-17T03:36:09;2.80;;;2.33;;
59659;SDS011;45534;52.690;6.268;2022-07-17T03:38:34;2.47;;;2.05;;
59659;SDS011;45534;52.690;6.268;2022-07-17T03:41:00;7.05;;;2.40;;
59659;SDS011;45534;52.690;6.268;2022-07-17T03:43:26;2.33;;;2.13;;
59659;SDS011;45534;52.690;6.268;2022-07-17T03:45:51;5.65;;;2.30;;
59659;SDS011;45534;52.690;6.268;2022-07-17T03:48:17;2.15;;;1.95;;
59659;SDS011;45534;52.690;6.268;2022-07-17T03:50:43;7.82;;;2.90;;
59659;SDS011;45534;52.690;6.268;2022-07-17T03:53:09;6.28;;;2.80;;
59659;SDS011;45534;52.690;6.268;2022-07-17T03:55:35;3.40;;;2.20;;
59659;SDS011;45534;52.690;6.268;2022-07-17T03:58:01;2.53;;;2.33;;
59659;SDS011;45534;52.690;6.268;2022-07-17T04:00:27;2.33;;;2.13;;
59659;SDS011;45534;52.690;6.268;2022-07-17T04:02:53;4.15;;;2.58;;
59659;SDS011;45534;52.690;6.268;2022-07-17T04:05:18;6.50;;;3.33;;
59659;SDS011;45534;52.690;6.268;2022-07-17T04:07:44;3.42;;;2.15;;
59659;SDS011;45534;52.690;6.268;2022-07-17T04:10:11;4.57;;;2.65;;
59659;SDS011;45534;52.690;6.268;2022-07-17T04:12:38;4.07;;;2.90;;
59659;SDS011;45534;52.690;6.268;2022-07-17T04:15:04;3.60;;;2.45;;
59659;SDS011;45534;52.690;6.268;2022-07-17T04:17:31;6.55;;;4.10;;
59659;SDS011;45534;52.690;6.268;2022-07-17T04:19:57;4.30;;;3.08;;
59659;SDS011;45534;52.690;6.268;2022-07-17T04:22:23;4.60;;;2.80;;
59659;SDS011;45534;52.690;6.268;2022-07-17T04:24:48;6.28;;;3.45;;
59659;SDS011;45534;52.690;6.268;2022-07-17T04:27:14;6.28;;;3.53;;
59659;SDS011;45534;52.690;6.268;2022-07-17T04:29:40;3.63;;;2.75;;
59659;SDS011;45534;52.690;6.268;2022-07-17T04:32:06;3.88;;;3.40;;
59659;SDS011;45534;52.690;6.268;2022-07-17T04:34:32;2.50;;;2.30;;
59659;SDS011;45534;52.690;6.268;2022-07-17T04:36:59;4.05;;;2.60;;
59659;SDS011;45534;52.690;6.268;2022-07-17T04:39:26;6.63;;;3.08;;
59659;SDS011;45534;52.690;6.268;2022-07-17T04:41:52;8.18;;;3.80;;
59659;SDS011;45534;52.690;6.268;2022-07-17T04:44:17;3.95;;;2.70;;
59659;SDS011;45534;52.690;6.268;2022-07-17T04:46:43;6.55;;;3.13;;
59659;SDS011;45534;52.690;6.268;2022-07-17T04:49:10;18.17;;;4.50;;
59659;SDS011;45534;52.690;6.268;2022-07-17T04:51:36;7.65;;;3.20;;
59659;SDS011;45534;52.690;6.268;2022-07-17T04:54:02;3.60;;;2.88;;
59659;SDS011;45534;52.690;6.268;2022-07-17T04:56:28;5.07;;;3.17;;
59659;SDS011;45534;52.690;6.268;2022-07-17T04:58:54;8.55;;;3.85;;
59659;SDS011;45534;52.690;6.268;2022-07-17T05:01:19;5.22;;;3.15;;
59659;SDS011;45534;52.690;6.268;2022-07-17T05:03:45;6.28;;;3.00;;
59659;SDS011;45534;52.690;6.268;2022-07-17T05:06:11;4.28;;;3.00;;
59659;SDS011;45534;52.690;6.268;2022-07-17T05:08:36;8.63;;;4.30;;
59659;SDS011;45534;52.690;6.268;2022-07-17T05:11:02;3.42;;;3.13;;
59659;SDS011;45534;52.690;6.268;2022-07-17T05:13:28;3.25;;;2.72;;
59659;SDS011;45534;52.690;6.268;2022-07-17T05:15:54;15.75;;;3.70;;
59659;SDS011;45534;52.690;6.268;2022-07-17T05:18:19;7.93;;;4.95;;
59659;SDS011;45534;52.690;6.268;2022-07-17T05:20:45;7.93;;;2.45;;
59659;SDS011;45534;52.690;6.268;2022-07-17T05:23:11;6.00;;;4.57;;
59659;SDS011;45534;52.690;6.268;2022-07-17T05:25:36;2.42;;;2.22;;
59659;SDS011;45534;52.690;6.268;2022-07-17T05:28:02;3.92;;;3.05;;
59659;SDS011;45534;52.690;6.268;2022-07-17T05:30:28;5.80;;;3.55;;
59659;SDS011;45534;52.690;6.268;2022-07-17T05:32:54;12.00;;;5.93;;
59659;SDS011;45534;52.690;6.268;2022-07-17T05:35:20;3.35;;;2.80;;
59659;SDS011;45534;52.690;6.268;2022-07-17T05:37:46;8.52;;;2.20;;
59659;SDS011;45534;52.690;6.268;2022-07-17T05:40:11;3.25;;;3.00;;
59659;SDS011;45534;52.690;6.268;2022-07-17T05:42:37;1.58;;;1.38;;
59659;SDS011;45534;52.690;6.268;2022-07-17T05:45:03;3.90;;;2.13;;
59659;SDS011;45534;52.690;6.268;2022-07-17T05:47:29;5.57;;;3.00;;
59659;SDS011;45534;52.690;6.268;2022-07-17T05:49:55;6.32;;;2.60;;
59659;SDS011;45534;52.690;6.268;2022-07-17T05:52:21;3.33;;;2.80;;
59659;SDS011;45534;52.690;6.268;2022-07-17T05:54:47;4.30;;;2.35;;
59659;SDS011;45534;52.690;6.268;2022-07-17T05:57:12;4.95;;;2.60;;
59659;SDS011;45534;52.690;6.268;2022-07-17T05:59:38;3.45;;;1.90;;
59659;SDS011;45534;52.690;6.268;2022-07-17T06:02:04;2.70;;;2.10;;
59659;SDS011;45534;52.690;6.268;2022-07-17T06:04:30;4.50;;;1.90;;
59659;SDS011;45534;52.690;6.268;2022-07-17T06:06:55;2.92;;;2.33;;
59659;SDS011;45534;52.690;6.268;2022-07-17T06:09:21;4.88;;;1.90;;
59659;SDS011;45534;52.690;6.268;2022-07-17T06:11:47;2.00;;;1.60;;
59659;SDS011;45534;52.690;6.268;2022-07-17T06:14:12;4.00;;;2.03;;
59659;SDS011;45534;52.690;6.268;2022-07-17T06:16:38;5.07;;;3.05;;
59659;SDS011;45534;52.690;6.268;2022-07-17T06:19:04;2.72;;;2.00;;
59659;SDS011;45534;52.690;6.268;2022-07-17T06:21:30;2.50;;;1.70;;
59659;SDS011;45534;52.690;6.268;2022-07-17T06:23:55;9.95;;;3.35;;
59659;SDS011;45534;52.690;6.268;2022-07-17T06:26:21;5.22;;;2.17;;
59659;SDS011;45534;52.690;6.268;2022-07-17T06:28:47;2.60;;;1.75;;
59659;SDS011;45534;52.690;6.268;2022-07-17T06:31:12;4.15;;;2.15;;
59659;SDS011;45534;52.690;6.268;2022-07-17T06:33:38;2.50;;;2.20;;
59659;SDS011;45534;52.690;6.268;2022-07-17T06:36:04;4.50;;;2.28;;
59659;SDS011;45534;52.690;6.268;2022-07-17T06:38:30;5.93;;;3.78;;
59659;SDS011;45534;52.690;6.268;2022-07-17T06:40:57;8.65;;;3.00;;
59659;SDS011;45534;52.690;6.268;2022-07-17T06:43:22;4.18;;;2.65;;
59659;SDS011;45534;52.690;6.268;2022-07-17T06:45:48;4.47;;;2.78;;
59659;SDS011;45534;52.690;6.268;2022-07-17T06:48:16;6.93;;;2.95;;
59659;SDS011;45534;52.690;6.268;2022-07-17T06:50:42;2.42;;;2.22;;
59659;SDS011;45534;52.690;6.268;2022-07-17T06:53:08;4.53;;;2.75;;
59659;SDS011;45534;52.690;6.268;2022-07-17T06:55:33;5.05;;;1.98;;
59659;SDS011;45534;52.690;6.268;2022-07-17T06:57:59;7.63;;;1.73;;
59659;SDS011;45534;52.690;6.268;2022-07-17T07:00:25;3.20;;;2.05;;
59659;SDS011;45534;52.690;6.268;2022-07-17T07:02:50;5.78;;;3.17;;
59659;SDS011;45534;52.690;6.268;2022-07-17T07:05:16;10.73;;;1.88;;
59659;SDS011;45534;52.690;6.268;2022-07-17T07:07:42;4.25;;;3.22;;
59659;SDS011;45534;52.690;6.268;2022-07-17T07:10:07;4.65;;;1.55;;
59659;SDS011;45534;52.690;6.268;2022-07-17T07:12:33;1.40;;;1.30;;
59659;SDS011;45534;52.690;6.268;2022-07-17T07:14:59;1.92;;;1.83;;
59659;SDS011;45534;52.690;6.268;2022-07-17T07:17:24;3.00;;;1.10;;
59659;SDS011;45534;52.690;6.268;2022-07-17T07:19:50;3.58;;;1.80;;
59659;SDS011;45534;52.690;6.268;2022-07-17T07:22:16;4.22;;;1.75;;
59659;SDS011;45534;52.690;6.268;2022-07-17T07:24:41;4.97;;;2.00;;
59659;SDS011;45534;52.690;6.268;2022-07-17T07:27:07;3.65;;;2.08;;
59659;SDS011;45534;52.690;6.268;2022-07-17T07:29:33;2.08;;;1.55;;
59659;SDS011;45534;52.690;6.268;2022-07-17T07:31:58;3.30;;;1.83;;
59659;SDS011;45534;52.690;6.268;2022-07-17T07:34:24;3.88;;;3.40;;
59659;SDS011;45534;52.690;6.268;2022-07-17T07:36:50;6.40;;;1.77;;
59659;SDS011;45534;52.690;6.268;2022-07-17T07:39:15;5.55;;;2.20;;
59659;SDS011;45534;52.690;6.268;2022-07-17T07:41:41;1.67;;;1.58;;
59659;SDS011;45534;52.690;6.268;2022-07-17T07:44:07;7.60;;;3.45;;
59659;SDS011;45534;52.690;6.268;2022-07-17T07:46:32;3.13;;;2.58;;
59659;SDS011;45534;52.690;6.268;2022-07-17T07:48:59;14.52;;;3.33;;
59659;SDS011;45534;52.690;6.268;2022-07-17T07:51:25;8.10;;;2.20;;
59659;SDS011;45534;52.690;6.268;2022-07-17T07:53:51;7.13;;;1.83;;
59659;SDS011;45534;52.690;6.268;2022-07-17T07:56:17;3.08;;;1.98;;
59659;SDS011;45534;52.690;6.268;2022-07-17T07:58:43;16.27;;;3.17;;
59659;SDS011;45534;52.690;6.268;2022-07-17T08:01:08;4.82;;;2.33;;
59659;SDS011;45534;52.690;6.268;2022-07-17T08:03:34;6.63;;;2.22;;
59659;SDS011;45534;52.690;6.268;2022-07-17T08:05:59;7.63;;;2.25;;
59659;SDS011;45534;52.690;6.268;2022-07-17T08:08:25;8.35;;;3.22;;
59659;SDS011;45534;52.690;6.268;2022-07-17T08:10:51;3.45;;;1.77;;
59659;SDS011;45534;52.690;6.268;2022-07-17T08:13:17;2.53;;;1.58;;
59659;SDS011;45534;52.690;6.268;2022-07-17T08:15:43;21.00;;;3.15;;
59659;SDS011;45534;52.690;6.268;2022-07-17T08:18:08;3.78;;;1.48;;
59659;SDS011;45534;52.690;6.268;2022-07-17T08:20:34;2.08;;;1.70;;
59659;SDS011;45534;52.690;6.268;2022-07-17T08:23:00;5.93;;;3.42;;
59659;SDS011;45534;52.690;6.268;2022-07-17T08:25:25;2.38;;;2.15;;
59659;SDS011;45534;52.690;6.268;2022-07-17T08:27:51;7.55;;;3.03;;
59659;SDS011;45534;52.690;6.268;2022-07-17T08:30:17;9.63;;;2.92;;
59659;SDS011;45534;52.690;6.268;2022-07-17T08:32:42;9.30;;;3.40;;
59659;SDS011;45534;52.690;6.268;2022-07-17T08:35:09;12.05;;;3.60;;
59659;SDS011;45534;52.690;6.268;2022-07-17T08:37:45;12.57;;;3.58;;
59659;SDS011;45534;52.690;6.268;2022-07-17T08:40:17;10.93;;;3.72;;
59659;SDS011;45534;52.690;6.268;2022-07-17T08:42:48;8.00;;;3.70;;
59659;SDS011;45534;52.690;6.268;2022-07-17T08:45:14;4.63;;;1.60;;
59659;SDS011;45534;52.690;6.268;2022-07-17T08:47:40;1.77;;;1.63;;
59659;SDS011;45534;52.690;6.268;2022-07-17T08:50:06;8.85;;;2.25;;
59659;SDS011;45534;52.690;6.268;2022-07-17T08:52:36;13.88;;;3.47;;
59659;SDS011;45534;52.690;6.268;2022-07-17T08:55:04;7.57;;;3.00;;
59659;SDS011;45534;52.690;6.268;2022-07-17T08:57:35;8.93;;;3.15;;
59659;SDS011;45534;52.690;6.268;2022-07-17T09:00:03;5.50;;;3.03;;
59659;SDS011;45534;52.690;6.268;2022-07-17T09:02:30;10.27;;;3.40;;
59659;SDS011;45534;52.690;6.268;2022-07-17T09:04:55;7.30;;;1.75;;
59659;SDS011;45534;52.690;6.268;2022-07-17T09:07:21;7.45;;;2.08;;
59659;SDS011;45534;52.690;6.268;2022-07-17T09:09:50;2.05;;;1.40;;
59659;SDS011;45534;52.690;6.268;2022-07-17T09:12:17;9.48;;;3.33;;
59659;SDS011;45534;52.690;6.268;2022-07-17T09:14:47;12.10;;;3.17;;
59659;SDS011;45534;52.690;6.268;2022-07-17T09:17:13;8.73;;;2.72;;
59659;SDS011;45534;52.690;6.268;2022-07-17T09:19:43;1.17;;;1.17;;
59659;SDS011;45534;52.690;6.268;2022-07-17T09:24:47;6.43;;;2.72;;
59659;SDS011;45534;52.690;6.268;2022-07-17T09:27:35;4.78;;;2.20;;
59659;SDS011;45534;52.690;6.268;2022-07-17T09:30:02;5.97;;;2.72;;
59659;SDS011;45534;52.690;6.268;2022-07-17T09:32:30;7.90;;;2.97;;
59659;SDS011;45534;52.690;6.268;2022-07-17T09:34:59;5.60;;;2.65;;
59659;SDS011;45534;52.690;6.268;2022-07-17T09:37:26;4.60;;;1.88;;
59659;SDS011;45534;52.690;6.268;2022-07-17T09:39:54;1.40;;;1.33;;
59659;SDS011;45534;52.690;6.268;2022-07-17T09:42:27;6.32;;;2.40;;
59659;SDS011;45534;52.690;6.268;2022-07-17T09:45:02;6.80;;;2.83;;
59659;SDS011;45534;52.690;6.268;2022-07-17T09:47:33;1.85;;;1.45;;
59659;SDS011;45534;52.690;6.268;2022-07-17T09:50:02;4.07;;;2.03;;
59659;SDS011;45534;52.690;6.268;2022-07-17T09:52:30;4.25;;;2.58;;
59659;SDS011;45534;52.690;6.268;2022-07-17T09:54:58;5.00;;;2.22;;
59659;SDS011;45534;52.690;6.268;2022-07-17T09:57:29;5.50;;;2.67;;
59659;SDS011;45534;52.690;6.268;2022-07-17T10:02:30;7.97;;;2.72;;
59659;SDS011;45534;52.690;6.268;2022-07-17T10:04:57;4.00;;;1.50;;
59659;SDS011;45534;52.690;6.268;2022-07-17T10:07:23;3.38;;;2.05;;
59659;SDS011;45534;52.690;6.268;2022-07-17T10:09:49;4.03;;;2.17;;
59659;SDS011;45534;52.690;6.268;2022-07-17T10:12:15;6.65;;;3.13;;
59659;SDS011;45534;52.690;6.268;2022-07-17T10:14:42;6.25;;;2.83;;
59659;SDS011;45534;52.690;6.268;2022-07-17T10:17:12;5.15;;;2.55;;
59659;SDS011;45534;52.690;6.268;2022-07-17T10:19:46;5.05;;;2.80;;
59659;SDS011;45534;52.690;6.268;2022-07-17T10:22:13;9.35;;;2.40;;
59659;SDS011;45534;52.690;6.268;2022-07-17T10:27:18;6.32;;;2.95;;
59659;SDS011;45534;52.690;6.268;2022-07-17T10:29:44;6.35;;;3.10;;
59659;SDS011;45534;52.690;6.268;2022-07-17T10:32:19;5.55;;;3.10;;
59659;SDS011;45534;52.690;6.268;2022-07-17T10:34:45;8.95;;;3.75;;
59659;SDS011;45534;52.690;6.268;2022-07-17T10:37:23;4.68;;;2.55;;
59659;SDS011;45534;52.690;6.268;2022-07-17T10:45:19;4.25;;;2.60;;
59659;SDS011;45534;52.690;6.268;2022-07-17T10:48:01;8.38;;;3.20;;
59659;SDS011;45534;52.690;6.268;2022-07-17T10:50:44;6.50;;;3.67;;
59659;SDS011;45534;52.690;6.268;2022-07-17T10:55:53;8.80;;;3.03;;
59659;SDS011;45534;52.690;6.268;2022-07-17T10:58:26;9.23;;;3.35;;
59659;SDS011;45534;52.690;6.268;2022-07-17T11:03:27;8.48;;;2.58;;
59659;SDS011;45534;52.690;6.268;2022-07-17T11:05:53;4.53;;;2.08;;
59659;SDS011;45534;52.690;6.268;2022-07-17T11:08:19;9.27;;;3.45;;
59659;SDS011;45534;52.690;6.268;2022-07-17T11:10:45;7.78;;;3.13;;
59659;SDS011;45534;52.690;6.268;2022-07-17T11:13:13;3.75;;;2.55;;
59659;SDS011;45534;52.690;6.268;2022-07-17T11:18:11;10.65;;;2.80;;
59659;SDS011;45534;52.690;6.268;2022-07-17T11:20:52;7.82;;;3.10;;
59659;SDS011;45534;52.690;6.268;2022-07-17T11:28:36;6.93;;;3.05;;
59659;SDS011;45534;52.690;6.268;2022-07-17T11:31:05;6.85;;;2.67;;
59659;SDS011;45534;52.690;6.268;2022-07-17T11:33:52;13.23;;;3.78;;
59659;SDS011;45534;52.690;6.268;2022-07-17T11:36:19;6.68;;;2.50;;
59659;SDS011;45534;52.690;6.268;2022-07-17T11:38:55;5.93;;;3.10;;
59659;SDS011;45534;52.690;6.268;2022-07-17T11:41:29;4.25;;;2.67;;
59659;SDS011;45534;52.690;6.268;2022-07-17T11:44:09;5.10;;;2.55;;
59659;SDS011;45534;52.690;6.268;2022-07-17T11:46:36;3.33;;;2.75;;
59659;SDS011;45534;52.690;6.268;2022-07-17T11:49:04;3.70;;;2.72;;
59659;SDS011;45534;52.690;6.268;2022-07-17T11:51:48;10.55;;;3.65;;
59659;SDS011;45534;52.690;6.268;2022-07-17T11:54:14;6.32;;;3.55;;
59659;SDS011;45534;52.690;6.268;2022-07-17T11:56:41;7.28;;;3.15;;
59659;SDS011;45534;52.690;6.268;2022-07-17T11:59:22;6.45;;;2.35;;
59659;SDS011;45534;52.690;6.268;2022-07-17T12:01:50;4.10;;;2.85;;
59659;SDS011;45534;52.690;6.268;2022-07-17T12:04:16;7.38;;;3.00;;
59659;SDS011;45534;52.690;6.268;2022-07-17T12:06:41;3.53;;;2.28;;
59659;SDS011;45534;52.690;6.268;2022-07-17T12:09:08;4.32;;;2.75;;
59659;SDS011;45534;52.690;6.268;2022-07-17T12:11:44;4.20;;;2.65;;
59659;SDS011;45534;52.690;6.268;2022-07-17T12:14:11;11.65;;;3.83;;
59659;SDS011;45534;52.690;6.268;2022-07-17T12:16:36;8.48;;;2.85;;
59659;SDS011;45534;52.690;6.268;2022-07-17T12:19:07;7.70;;;3.00;;
59659;SDS011;45534;52.690;6.268;2022-07-17T12:26:55;3.63;;;2.58;;
59659;SDS011;45534;52.690;6.268;2022-07-17T12:29:24;6.38;;;2.72;;
59659;SDS011;45534;52.690;6.268;2022-07-17T12:34:40;8.23;;;2.95;;
59659;SDS011;45534;52.690;6.268;2022-07-17T12:37:19;5.82;;;3.42;;
59659;SDS011;45534;52.690;6.268;2022-07-17T12:39:47;5.40;;;3.22;;
59659;SDS011;45534;52.690;6.268;2022-07-17T12:42:14;4.05;;;2.92;;
59659;SDS011;45534;52.690;6.268;2022-07-17T12:44:41;7.07;;;3.33;;
59659;SDS011;45534;52.690;6.268;2022-07-17T12:47:07;6.78;;;3.53;;
59659;SDS011;45534;52.690;6.268;2022-07-17T12:49:33;6.05;;;3.58;;
59659;SDS011;45534;52.690;6.268;2022-07-17T12:51:59;8.32;;;3.88;;
59659;SDS011;45534;52.690;6.268;2022-07-17T12:54:25;5.80;;;3.45;;
59659;SDS011;45534;52.690;6.268;2022-07-17T12:56:51;8.05;;;3.60;;
59659;SDS011;45534;52.690;6.268;2022-07-17T12:59:17;5.47;;;3.20;;
59659;SDS011;45534;52.690;6.268;2022-07-17T13:01:43;7.05;;;3.92;;
59659;SDS011;45534;52.690;6.268;2022-07-17T13:04:10;7.57;;;4.15;;
59659;SDS011;45534;52.690;6.268;2022-07-17T13:06:36;8.15;;;4.15;;
59659;SDS011;45534;52.690;6.268;2022-07-17T13:09:02;5.72;;;3.72;;
59659;SDS011;45534;52.690;6.268;2022-07-17T13:11:28;6.78;;;4.07;;
59659;SDS011;45534;52.690;6.268;2022-07-17T13:13:54;7.78;;;4.15;;
59659;SDS011;45534;52.690;6.268;2022-07-17T13:16:20;4.95;;;3.17;;
59659;SDS011;45534;52.690;6.268;2022-07-17T13:18:48;14.50;;;4.72;;
59659;SDS011;45534;52.690;6.268;2022-07-17T13:21:14;5.80;;;3.88;;
59659;SDS011;45534;52.690;6.268;2022-07-17T13:23:40;8.20;;;4.20;;
59659;SDS011;45534;52.690;6.268;2022-07-17T13:26:06;7.10;;;4.57;;
59659;SDS011;45534;52.690;6.268;2022-07-17T13:28:32;7.63;;;4.53;;
59659;SDS011;45534;52.690;6.268;2022-07-17T13:30:57;7.80;;;4.75;;
59659;SDS011;45534;52.690;6.268;2022-07-17T13:33:24;7.28;;;4.55;;
59659;SDS011;45534;52.690;6.268;2022-07-17T13:35:50;6.85;;;5.05;;
59659;SDS011;45534;52.690;6.268;2022-07-17T13:38:16;6.00;;;3.97;;
59659;SDS011;45534;52.690;6.268;2022-07-17T13:40:42;8.90;;;4.53;;
59659;SDS011;45534;52.690;6.268;2022-07-17T13:43:08;7.85;;;4.60;;
59659;SDS011;45534;52.690;6.268;2022-07-17T13:45:34;6.88;;;4.57;;
59659;SDS011;45534;52.690;6.268;2022-07-17T13:48:00;5.05;;;3.67;;
59659;SDS011;45534;52.690;6.268;2022-07-17T13:50:26;6.95;;;4.05;;
59659;SDS011;45534;52.690;6.268;2022-07-17T13:52:52;7.72;;;5.10;;
59659;SDS011;45534;52.690;6.268;2022-07-17T13:55:18;6.20;;;3.85;;
59659;SDS011;45534;52.690;6.268;2022-07-17T13:57:44;10.18;;;4.38;;
59659;SDS011;45534;52.690;6.268;2022-07-17T14:00:10;7.68;;;4.22;;
59659;SDS011;45534;52.690;6.268;2022-07-17T14:02:37;6.68;;;4.25;;
59659;SDS011;45534;52.690;6.268;2022-07-17T14:05:04;6.82;;;3.88;;
59659;SDS011;45534;52.690;6.268;2022-07-17T14:07:30;6.70;;;3.92;;
59659;SDS011;45534;52.690;6.268;2022-07-17T14:09:56;8.15;;;5.20;;
59659;SDS011;45534;52.690;6.268;2022-07-17T14:12:22;7.35;;;4.28;;
59659;SDS011;45534;52.690;6.268;2022-07-17T14:14:48;6.82;;;4.07;;
59659;SDS011;45534;52.690;6.268;2022-07-17T14:17:13;5.85;;;4.22;;
59659;SDS011;45534;52.690;6.268;2022-07-17T14:19:42;8.70;;;4.03;;
59659;SDS011;45534;52.690;6.268;2022-07-17T14:22:08;7.82;;;3.58;;
59659;SDS011;45534;52.690;6.268;2022-07-17T14:24:34;9.90;;;5.28;;
59659;SDS011;45534;52.690;6.268;2022-07-17T14:27:00;9.35;;;4.93;;
59659;SDS011;45534;52.690;6.268;2022-07-17T14:29:25;7.78;;;4.72;;
59659;SDS011;45534;52.690;6.268;2022-07-17T14:31:51;9.27;;;4.50;;
59659;SDS011;45534;52.690;6.268;2022-07-17T14:34:17;10.48;;;4.15;;
59659;SDS011;45534;52.690;6.268;2022-07-17T14:36:43;5.55;;;3.47;;
59659;SDS011;45534;52.690;6.268;2022-07-17T14:39:09;7.72;;;4.45;;
59659;SDS011;45534;52.690;6.268;2022-07-17T14:41:34;10.40;;;4.78;;
59659;SDS011;45534;52.690;6.268;2022-07-17T14:44:00;5.60;;;4.00;;
59659;SDS011;45534;52.690;6.268;2022-07-17T14:46:26;8.63;;;4.82;;
59659;SDS011;45534;52.690;6.268;2022-07-17T14:48:52;9.20;;;4.72;;
59659;SDS011;45534;52.690;6.268;2022-07-17T14:51:17;4.80;;;3.70;;
59659;SDS011;45534;52.690;6.268;2022-07-17T14:53:43;7.40;;;4.30;;
59659;SDS011;45534;52.690;6.268;2022-07-17T14:56:09;8.68;;;4.47;;
59659;SDS011;45534;52.690;6.268;2022-07-17T14:58:35;6.57;;;4.03;;
59659;SDS011;45534;52.690;6.268;2022-07-17T15:01:00;7.80;;;4.05;;
59659;SDS011;45534;52.690;6.268;2022-07-17T15:03:26;6.05;;;4.40;;
59659;SDS011;45534;52.690;6.268;2022-07-17T15:05:52;6.95;;;4.35;;
59659;SDS011;45534;52.690;6.268;2022-07-17T15:08:17;6.35;;;4.55;;
59659;SDS011;45534;52.690;6.268;2022-07-17T15:10:43;6.45;;;4.70;;
59659;SDS011;45534;52.690;6.268;2022-07-17T15:13:09;7.32;;;4.90;;
59659;SDS011;45534;52.690;6.268;2022-07-17T15:15:34;9.63;;;4.60;;
59659;SDS011;45534;52.690;6.268;2022-07-17T15:18:00;7.60;;;4.80;;
59659;SDS011;45534;52.690;6.268;2022-07-17T15:20:26;10.10;;;4.43;;